sensor_id;sensor_type;location;lat;lon;timestamp;temperature;humidity
13148;DHT22;6639;50.956;4.242;2024-01-30T00:01:58;15.30;99.90
13148;DHT22;6639;50.956;4.242;2024-01-30T00:04:25;14.80;99.90
13148;DHT22;6639;50.956;4.242;2024-01-30T00:06:54;14.70;99.90
13148;DHT22;6639;50.956;4.242;2024-01-30T00:09:21;14.80;99.90
13148;DHT22;6639;50.956;4.242;2024-01-30T00:11:48;14.90;99.90
13148;DHT22;6639;50.956;4.242;2024-01-30T00:14:15;14.90;99.90
13148;DHT22;6639;50.956;4.242;2024-01-30T00:16:42;15.00;99.90
13148;DHT22;6639;50.956;4.242;2024-01-30T00:19:10;14.60;99.90
13148;DHT22;6639;50.956;4.242;2024-01-30T00:21:37;14.90;99.90
13148;DHT22;6639;50.956;4.242;2024-01-30T00:24:06;14.70;99.90
13148;DHT22;6639;50.956;4.242;2024-01-30T00:26:33;14.40;99.90
13148;DHT22;6639;50.956;4.242;2024-01-30T00:29:02;14.20;99.90
13148;DHT22;6639;50.956;4.242;2024-01-30T00:31:29;14.00;99.90
13148;DHT22;6639;50.956;4.242;2024-01-30T00:33:56;14.40;99.90
13148;DHT22;6639;50.956;4.242;2024-01-30T00:36:23;14.60;99.90
13148;DHT22;6639;50.956;4.242;2024-01-30T00:38:50;14.70;99.90
13148;DHT22;6639;50.956;4.242;2024-01-30T00:41:19;14.60;99.90
13148;DHT22;6639;50.956;4.242;2024-01-30T00:43:46;14.60;99.90
13148;DHT22;6639;50.956;4.242;2024-01-30T00:46:13;15.20;99.90
13148;DHT22;6639;50.956;4.242;2024-01-30T00:48:40;15.30;99.90
13148;DHT22;6639;50.956;4.242;2024-01-30T00:51:07;14.90;99.90
13148;DHT22;6639;50.956;4.242;2024-01-30T00:53:34;14.80;99.90
13148;DHT22;6639;50.956;4.242;2024-01-30T00:56:01;14.40;99.90
13148;DHT22;6639;50.956;4.242;2024-01-30T00:58:30;14.40;99.90
13148;DHT22;6639;50.956;4.242;2024-01-30T01:00:57;14.50;99.90
13148;DHT22;6639;50.956;4.242;2024-01-30T01:03:24;14.40;99.90
13148;DHT22;6639;50.956;4.242;2024-01-30T01:05:54;14.20;99.90
13148;DHT22;6639;50.956;4.242;2024-01-30T01:08:21;14.50;99.90
13148;DHT22;6639;50.956;4.242;2024-01-30T01:10:49;14.40;99.90
13148;DHT22;6639;50.956;4.242;2024-01-30T01:13:15;14.50;99.90
13148;DHT22;6639;50.956;4.242;2024-01-30T01:15:43;14.40;99.90
13148;DHT22;6639;50.956;4.242;2024-01-30T01:18:10;15.00;99.90
13148;DHT22;6639;50.956;4.242;2024-01-30T01:20:37;15.00;99.90
13148;DHT22;6639;50.956;4.242;2024-01-30T01:23:04;14.80;99.90
13148;DHT22;6639;50.956;4.242;2024-01-30T01:25:31;14.60;99.90
13148;DHT22;6639;50.956;4.242;2024-01-30T01:27:58;14.50;99.90
13148;DHT22;6639;50.956;4.242;2024-01-30T01:30:27;14.70;99.90
13148;DHT22;6639;50.956;4.242;2024-01-30T01:32:56;14.80;99.90
13148;DHT22;6639;50.956;4.242;2024-01-30T01:35:26;15.00;99.90
13148;DHT22;6639;50.956;4.242;2024-01-30T01:37:54;14.70;99.90
13148;DHT22;6639;50.956;4.242;2024-01-30T01:40:23;14.60;99.90
13148;DHT22;6639;50.956;4.242;2024-01-30T01:42:50;15.00;99.90
13148;DHT22;6639;50.956;4.242;2024-01-30T01:45:18;15.20;99.90
13148;DHT22;6639;50.956;4.242;2024-01-30T01:47:47;14.90;99.90
13148;DHT22;6639;50.956;4.242;2024-01-30T01:50:17;15.30;99.90
13148;DHT22;6639;50.956;4.242;2024-01-30T01:52:45;15.60;99.90
13148;DHT22;6639;50.956;4.242;2024-01-30T01:55:13;15.70;99.90
13148;DHT22;6639;50.956;4.242;2024-01-30T01:57:41;15.10;99.90
13148;DHT22;6639;50.956;4.242;2024-01-30T02:00:09;14.70;99.90
13148;DHT22;6639;50.956;4.242;2024-01-30T02:02:37;14.50;99.90
13148;DHT22;6639;50.956;4.242;2024-01-30T02:05:06;14.50;99.90
13148;DHT22;6639;50.956;4.242;2024-01-30T02:07:34;14.30;99.90
13148;DHT22;6639;50.956;4.242;2024-01-30T02:10:02;14.00;99.90
13148;DHT22;6639;50.956;4.242;2024-01-30T02:12:29;14.10;99.90
13148;DHT22;6639;50.956;4.242;2024-01-30T02:14:56;14.20;99.90
13148;DHT22;6639;50.956;4.242;2024-01-30T02:17:23;14.30;99.90
13148;DHT22;6639;50.956;4.242;2024-01-30T02:19:51;14.20;99.90
13148;DHT22;6639;50.956;4.242;2024-01-30T02:22:20;14.30;99.90
13148;DHT22;6639;50.956;4.242;2024-01-30T02:24:48;14.00;99.90
13148;DHT22;6639;50.956;4.242;2024-01-30T02:27:15;13.90;99.90
13148;DHT22;6639;50.956;4.242;2024-01-30T02:29:41;14.50;99.90
13148;DHT22;6639;50.956;4.242;2024-01-30T02:32:09;14.20;99.90
13148;DHT22;6639;50.956;4.242;2024-01-30T02:34:35;14.20;99.90
13148;DHT22;6639;50.956;4.242;2024-01-30T02:37:03;14.70;99.90
13148;DHT22;6639;50.956;4.242;2024-01-30T02:39:33;15.10;99.90
13148;DHT22;6639;50.956;4.242;2024-01-30T02:42:00;14.80;99.90
13148;DHT22;6639;50.956;4.242;2024-01-30T02:44:26;14.90;99.90
13148;DHT22;6639;50.956;4.242;2024-01-30T02:46:53;14.90;99.90
13148;DHT22;6639;50.956;4.242;2024-01-30T02:49:20;14.60;99.90
13148;DHT22;6639;50.956;4.242;2024-01-30T02:51:47;15.00;99.90
13148;DHT22;6639;50.956;4.242;2024-01-30T02:54:14;15.10;99.90
13148;DHT22;6639;50.956;4.242;2024-01-30T02:56:43;14.40;99.90
13148;DHT22;6639;50.956;4.242;2024-01-30T02:59:10;14.60;99.90
13148;DHT22;6639;50.956;4.242;2024-01-30T03:01:43;15.20;99.90
13148;DHT22;6639;50.956;4.242;2024-01-30T03:04:10;15.00;99.90
13148;DHT22;6639;50.956;4.242;2024-01-30T03:06:38;15.00;99.90
13148;DHT22;6639;50.956;4.242;2024-01-30T03:09:05;14.70;99.90
13148;DHT22;6639;50.956;4.242;2024-01-30T03:11:31;14.80;99.90
13148;DHT22;6639;50.956;4.242;2024-01-30T03:14:00;14.50;99.90
13148;DHT22;6639;50.956;4.242;2024-01-30T03:16:26;14.50;99.90
13148;DHT22;6639;50.956;4.242;2024-01-30T03:18:53;15.00;99.90
13148;DHT22;6639;50.956;4.242;2024-01-30T03:21:20;15.40;99.90
13148;DHT22;6639;50.956;4.242;2024-01-30T03:23:47;15.30;99.90
13148;DHT22;6639;50.956;4.242;2024-01-30T03:26:14;15.20;99.90
13148;DHT22;6639;50.956;4.242;2024-01-30T03:28:41;15.40;99.90
13148;DHT22;6639;50.956;4.242;2024-01-30T03:31:09;15.30;99.90
13148;DHT22;6639;50.956;4.242;2024-01-30T03:33:36;15.20;99.90
13148;DHT22;6639;50.956;4.242;2024-01-30T03:36:04;15.30;99.90
13148;DHT22;6639;50.956;4.242;2024-01-30T03:38:31;15.00;99.90
13148;DHT22;6639;50.956;4.242;2024-01-30T03:40:59;15.10;99.90
13148;DHT22;6639;50.956;4.242;2024-01-30T03:43:26;15.50;99.90
13148;DHT22;6639;50.956;4.242;2024-01-30T03:45:53;15.70;99.90
13148;DHT22;6639;50.956;4.242;2024-01-30T03:48:21;15.40;99.90
13148;DHT22;6639;50.956;4.242;2024-01-30T03:50:48;15.40;99.90
13148;DHT22;6639;50.956;4.242;2024-01-30T03:53:15;15.10;99.90
13148;DHT22;6639;50.956;4.242;2024-01-30T03:55:42;15.30;99.90
13148;DHT22;6639;50.956;4.242;2024-01-30T03:58:09;15.10;99.90
13148;DHT22;6639;50.956;4.242;2024-01-30T04:00:36;14.90;99.90
13148;DHT22;6639;50.956;4.242;2024-01-30T04:03:03;14.90;99.90
13148;DHT22;6639;50.956;4.242;2024-01-30T04:05:32;14.80;99.90
13148;DHT22;6639;50.956;4.242;2024-01-30T04:07:59;15.10;99.90
13148;DHT22;6639;50.956;4.242;2024-01-30T04:10:26;14.90;99.90
13148;DHT22;6639;50.956;4.242;2024-01-30T04:12:54;15.30;99.90
13148;DHT22;6639;50.956;4.242;2024-01-30T04:15:21;15.20;99.90
13148;DHT22;6639;50.956;4.242;2024-01-30T04:17:48;15.20;99.90
13148;DHT22;6639;50.956;4.242;2024-01-30T04:20:15;15.30;99.90
13148;DHT22;6639;50.956;4.242;2024-01-30T04:22:45;15.20;99.90
13148;DHT22;6639;50.956;4.242;2024-01-30T04:25:12;15.40;99.90
13148;DHT22;6639;50.956;4.242;2024-01-30T04:27:39;15.10;99.90
13148;DHT22;6639;50.956;4.242;2024-01-30T04:30:07;14.80;99.90
13148;DHT22;6639;50.956;4.242;2024-01-30T04:32:35;14.70;99.90
13148;DHT22;6639;50.956;4.242;2024-01-30T04:35:03;14.80;99.90
13148;DHT22;6639;50.956;4.242;2024-01-30T04:37:30;14.90;99.90
13148;DHT22;6639;50.956;4.242;2024-01-30T04:39:58;14.30;99.90
13148;DHT22;6639;50.956;4.242;2024-01-30T04:42:25;14.50;99.90
13148;DHT22;6639;50.956;4.242;2024-01-30T04:44:52;14.60;99.90
13148;DHT22;6639;50.956;4.242;2024-01-30T04:47:19;14.60;99.90
13148;DHT22;6639;50.956;4.242;2024-01-30T04:49:46;14.70;99.90
13148;DHT22;6639;50.956;4.242;2024-01-30T04:52:13;14.60;99.90
13148;DHT22;6639;50.956;4.242;2024-01-30T04:54:41;14.80;99.90
13148;DHT22;6639;50.956;4.242;2024-01-30T04:57:09;14.60;99.90
13148;DHT22;6639;50.956;4.242;2024-01-30T04:59:37;14.70;99.90
13148;DHT22;6639;50.956;4.242;2024-01-30T05:02:05;14.70;99.90
13148;DHT22;6639;50.956;4.242;2024-01-30T05:04:32;15.00;99.90
13148;DHT22;6639;50.956;4.242;2024-01-30T05:06:59;14.90;99.90
13148;DHT22;6639;50.956;4.242;2024-01-30T05:09:26;14.50;99.90
13148;DHT22;6639;50.956;4.242;2024-01-30T05:11:53;14.60;99.90
13148;DHT22;6639;50.956;4.242;2024-01-30T05:14:21;14.70;99.90
13148;DHT22;6639;50.956;4.242;2024-01-30T05:16:48;14.70;99.90
13148;DHT22;6639;50.956;4.242;2024-01-30T05:19:16;15.00;99.90
13148;DHT22;6639;50.956;4.242;2024-01-30T05:21:44;14.90;99.90
13148;DHT22;6639;50.956;4.242;2024-01-30T05:24:11;15.00;99.90
13148;DHT22;6639;50.956;4.242;2024-01-30T05:26:38;14.80;99.90
13148;DHT22;6639;50.956;4.242;2024-01-30T05:29:05;14.30;99.90
13148;DHT22;6639;50.956;4.242;2024-01-30T05:31:36;14.70;99.90
13148;DHT22;6639;50.956;4.242;2024-01-30T05:34:03;14.90;99.90
13148;DHT22;6639;50.956;4.242;2024-01-30T05:36:32;14.60;99.90
13148;DHT22;6639;50.956;4.242;2024-01-30T05:38:59;14.70;99.90
13148;DHT22;6639;50.956;4.242;2024-01-30T05:41:25;14.10;99.90
13148;DHT22;6639;50.956;4.242;2024-01-30T05:43:53;14.40;99.90
13148;DHT22;6639;50.956;4.242;2024-01-30T05:46:20;14.50;99.90
13148;DHT22;6639;50.956;4.242;2024-01-30T05:48:48;14.40;99.90
13148;DHT22;6639;50.956;4.242;2024-01-30T05:51:15;14.60;99.90
13148;DHT22;6639;50.956;4.242;2024-01-30T05:53:42;14.80;99.90
13148;DHT22;6639;50.956;4.242;2024-01-30T05:56:09;15.10;99.90
13148;DHT22;6639;50.956;4.242;2024-01-30T05:58:36;15.20;99.90
13148;DHT22;6639;50.956;4.242;2024-01-30T06:01:06;14.80;99.90
13148;DHT22;6639;50.956;4.242;2024-01-30T06:03:34;14.90;99.90
13148;DHT22;6639;50.956;4.242;2024-01-30T06:06:02;14.70;99.90
13148;DHT22;6639;50.956;4.242;2024-01-30T06:08:29;14.70;99.90
13148;DHT22;6639;50.956;4.242;2024-01-30T06:10:56;14.50;99.90
13148;DHT22;6639;50.956;4.242;2024-01-30T06:13:23;14.40;99.90
13148;DHT22;6639;50.956;4.242;2024-01-30T06:15:50;14.50;99.90
13148;DHT22;6639;50.956;4.242;2024-01-30T06:18:17;14.30;99.90
13148;DHT22;6639;50.956;4.242;2024-01-30T06:20:44;14.60;99.90
13148;DHT22;6639;50.956;4.242;2024-01-30T06:23:12;15.00;99.90
13148;DHT22;6639;50.956;4.242;2024-01-30T06:25:40;14.60;99.90
13148;DHT22;6639;50.956;4.242;2024-01-30T06:28:07;14.40;99.90
13148;DHT22;6639;50.956;4.242;2024-01-30T06:30:34;14.50;99.90
13148;DHT22;6639;50.956;4.242;2024-01-30T06:33:01;14.60;99.90
13148;DHT22;6639;50.956;4.242;2024-01-30T06:35:28;14.60;99.90
13148;DHT22;6639;50.956;4.242;2024-01-30T06:37:55;14.30;99.90
13148;DHT22;6639;50.956;4.242;2024-01-30T06:40:23;14.20;99.90
13148;DHT22;6639;50.956;4.242;2024-01-30T06:42:50;14.40;99.90
13148;DHT22;6639;50.956;4.242;2024-01-30T06:45:17;14.60;99.90
13148;DHT22;6639;50.956;4.242;2024-01-30T06:47:44;14.80;99.90
13148;DHT22;6639;50.956;4.242;2024-01-30T06:50:11;14.90;99.90
13148;DHT22;6639;50.956;4.242;2024-01-30T06:52:38;14.70;99.90
13148;DHT22;6639;50.956;4.242;2024-01-30T06:55:06;14.30;99.90
13148;DHT22;6639;50.956;4.242;2024-01-30T06:57:34;14.70;99.90
13148;DHT22;6639;50.956;4.242;2024-01-30T07:00:01;14.40;99.90
13148;DHT22;6639;50.956;4.242;2024-01-30T07:02:28;14.70;99.90
13148;DHT22;6639;50.956;4.242;2024-01-30T07:04:55;14.50;99.90
13148;DHT22;6639;50.956;4.242;2024-01-30T07:07:22;14.60;99.90
13148;DHT22;6639;50.956;4.242;2024-01-30T07:09:49;15.00;99.90
13148;DHT22;6639;50.956;4.242;2024-01-30T07:12:21;15.30;99.90
13148;DHT22;6639;50.956;4.242;2024-01-30T07:14:49;15.00;99.90
13148;DHT22;6639;50.956;4.242;2024-01-30T07:17:16;15.30;99.90
13148;DHT22;6639;50.956;4.242;2024-01-30T07:19:43;15.30;99.90
13148;DHT22;6639;50.956;4.242;2024-01-30T07:22:10;15.50;99.90
13148;DHT22;6639;50.956;4.242;2024-01-30T07:24:42;15.50;99.90
13148;DHT22;6639;50.956;4.242;2024-01-30T07:27:11;15.30;99.90
13148;DHT22;6639;50.956;4.242;2024-01-30T07:29:38;15.20;99.90
13148;DHT22;6639;50.956;4.242;2024-01-30T07:32:06;15.10;99.90
13148;DHT22;6639;50.956;4.242;2024-01-30T07:34:33;15.20;99.90
13148;DHT22;6639;50.956;4.242;2024-01-30T07:37:00;14.80;99.90
13148;DHT22;6639;50.956;4.242;2024-01-30T07:39:27;14.60;99.90
13148;DHT22;6639;50.956;4.242;2024-01-30T07:41:54;14.80;99.90
13148;DHT22;6639;50.956;4.242;2024-01-30T07:44:22;14.70;99.90
13148;DHT22;6639;50.956;4.242;2024-01-30T07:46:49;14.80;99.90
13148;DHT22;6639;50.956;4.242;2024-01-30T07:49:17;15.20;99.90
13148;DHT22;6639;50.956;4.242;2024-01-30T07:51:44;15.00;99.90
13148;DHT22;6639;50.956;4.242;2024-01-30T07:54:15;14.90;99.90
13148;DHT22;6639;50.956;4.242;2024-01-30T07:56:42;14.70;99.90
13148;DHT22;6639;50.956;4.242;2024-01-30T07:59:09;14.80;99.90
13148;DHT22;6639;50.956;4.242;2024-01-30T08:01:37;14.90;99.90
13148;DHT22;6639;50.956;4.242;2024-01-30T08:04:04;14.50;99.90
13148;DHT22;6639;50.956;4.242;2024-01-30T08:06:32;14.90;99.90
13148;DHT22;6639;50.956;4.242;2024-01-30T08:08:59;14.60;99.90
13148;DHT22;6639;50.956;4.242;2024-01-30T08:11:27;14.90;99.90
13148;DHT22;6639;50.956;4.242;2024-01-30T08:13:55;14.90;99.90
13148;DHT22;6639;50.956;4.242;2024-01-30T08:16:22;15.10;99.90
13148;DHT22;6639;50.956;4.242;2024-01-30T08:18:49;14.60;99.90
13148;DHT22;6639;50.956;4.242;2024-01-30T08:21:16;14.50;99.90
13148;DHT22;6639;50.956;4.242;2024-01-30T08:23:45;14.40;99.90
13148;DHT22;6639;50.956;4.242;2024-01-30T08:26:11;14.80;99.90
13148;DHT22;6639;50.956;4.242;2024-01-30T08:28:38;14.70;99.90
13148;DHT22;6639;50.956;4.242;2024-01-30T08:31:05;14.80;99.90
13148;DHT22;6639;50.956;4.242;2024-01-30T08:33:32;14.80;99.90
13148;DHT22;6639;50.956;4.242;2024-01-30T08:35:59;14.60;99.90
13148;DHT22;6639;50.956;4.242;2024-01-30T08:38:26;14.90;99.90
13148;DHT22;6639;50.956;4.242;2024-01-30T08:40:55;15.00;99.90
13148;DHT22;6639;50.956;4.242;2024-01-30T08:43:23;14.80;99.90
13148;DHT22;6639;50.956;4.242;2024-01-30T08:45:50;14.80;99.90
13148;DHT22;6639;50.956;4.242;2024-01-30T08:48:17;15.20;99.90
13148;DHT22;6639;50.956;4.242;2024-01-30T08:50:44;15.60;99.90
13148;DHT22;6639;50.956;4.242;2024-01-30T08:53:11;15.60;99.90
13148;DHT22;6639;50.956;4.242;2024-01-30T08:55:38;15.50;99.90
13148;DHT22;6639;50.956;4.242;2024-01-30T08:58:06;15.30;99.90
13148;DHT22;6639;50.956;4.242;2024-01-30T09:00:33;15.00;99.90
13148;DHT22;6639;50.956;4.242;2024-01-30T09:03:00;15.40;99.90
13148;DHT22;6639;50.956;4.242;2024-01-30T09:05:27;15.70;99.90
13148;DHT22;6639;50.956;4.242;2024-01-30T09:07:54;15.50;99.90
13148;DHT22;6639;50.956;4.242;2024-01-30T09:10:21;15.60;99.90
13148;DHT22;6639;50.956;4.242;2024-01-30T09:12:48;16.10;99.90
13148;DHT22;6639;50.956;4.242;2024-01-30T09:15:17;16.30;99.90
13148;DHT22;6639;50.956;4.242;2024-01-30T09:17:44;16.40;99.90
13148;DHT22;6639;50.956;4.242;2024-01-30T09:20:13;16.30;99.90
13148;DHT22;6639;50.956;4.242;2024-01-30T09:22:39;16.20;99.90
13148;DHT22;6639;50.956;4.242;2024-01-30T09:25:07;15.80;99.90
13148;DHT22;6639;50.956;4.242;2024-01-30T09:27:34;16.00;99.90
13148;DHT22;6639;50.956;4.242;2024-01-30T09:30:01;16.00;99.90
13148;DHT22;6639;50.956;4.242;2024-01-30T09:32:30;15.70;99.90
13148;DHT22;6639;50.956;4.242;2024-01-30T09:34:57;15.70;99.90
13148;DHT22;6639;50.956;4.242;2024-01-30T09:37:25;15.70;99.90
13148;DHT22;6639;50.956;4.242;2024-01-30T09:39:52;15.80;99.90
13148;DHT22;6639;50.956;4.242;2024-01-30T09:42:26;15.50;99.90
13148;DHT22;6639;50.956;4.242;2024-01-30T09:44:54;15.00;99.90
13148;DHT22;6639;50.956;4.242;2024-01-30T09:47:22;15.30;99.90
13148;DHT22;6639;50.956;4.242;2024-01-30T09:49:51;15.60;99.90
13148;DHT22;6639;50.956;4.242;2024-01-30T09:52:18;15.70;99.90
13148;DHT22;6639;50.956;4.242;2024-01-30T09:54:45;16.00;99.90
13148;DHT22;6639;50.956;4.242;2024-01-30T09:57:13;15.30;99.90
13148;DHT22;6639;50.956;4.242;2024-01-30T09:59:41;15.30;99.90
13148;DHT22;6639;50.956;4.242;2024-01-30T10:02:09;15.20;99.90
13148;DHT22;6639;50.956;4.242;2024-01-30T10:04:36;15.20;99.90
13148;DHT22;6639;50.956;4.242;2024-01-30T10:07:04;15.40;99.90
13148;DHT22;6639;50.956;4.242;2024-01-30T10:09:32;15.20;99.90
13148;DHT22;6639;50.956;4.242;2024-01-30T10:12:00;15.00;99.90
13148;DHT22;6639;50.956;4.242;2024-01-30T10:14:29;15.10;99.90
13148;DHT22;6639;50.956;4.242;2024-01-30T10:16:57;15.00;99.90
13148;DHT22;6639;50.956;4.242;2024-01-30T10:19:23;14.90;99.90
13148;DHT22;6639;50.956;4.242;2024-01-30T10:21:51;14.80;99.90
13148;DHT22;6639;50.956;4.242;2024-01-30T10:24:24;14.90;99.90
13148;DHT22;6639;50.956;4.242;2024-01-30T10:26:50;14.50;99.90
13148;DHT22;6639;50.956;4.242;2024-01-30T10:29:17;14.70;99.90
13148;DHT22;6639;50.956;4.242;2024-01-30T10:31:44;14.40;99.90
13148;DHT22;6639;50.956;4.242;2024-01-30T10:34:11;14.60;99.90
13148;DHT22;6639;50.956;4.242;2024-01-30T10:36:40;14.70;99.90
13148;DHT22;6639;50.956;4.242;2024-01-30T10:39:08;14.70;99.90
13148;DHT22;6639;50.956;4.242;2024-01-30T10:41:43;14.60;99.90
13148;DHT22;6639;50.956;4.242;2024-01-30T10:44:10;14.30;99.90
13148;DHT22;6639;50.956;4.242;2024-01-30T10:46:38;14.10;99.90
13148;DHT22;6639;50.956;4.242;2024-01-30T10:49:05;14.10;99.90
13148;DHT22;6639;50.956;4.242;2024-01-30T10:51:32;14.30;99.90
13148;DHT22;6639;50.956;4.242;2024-01-30T10:54:02;14.50;99.90
13148;DHT22;6639;50.956;4.242;2024-01-30T10:56:31;14.80;99.90
13148;DHT22;6639;50.956;4.242;2024-01-30T10:59:00;14.80;99.90
13148;DHT22;6639;50.956;4.242;2024-01-30T11:01:28;14.60;99.90
13148;DHT22;6639;50.956;4.242;2024-01-30T11:03:56;14.50;99.90
13148;DHT22;6639;50.956;4.242;2024-01-30T11:06:24;14.50;99.90
13148;DHT22;6639;50.956;4.242;2024-01-30T11:09:01;14.20;99.90
13148;DHT22;6639;50.956;4.242;2024-01-30T11:11:29;14.10;99.90
13148;DHT22;6639;50.956;4.242;2024-01-30T11:14:02;14.10;99.90
13148;DHT22;6639;50.956;4.242;2024-01-30T11:16:31;14.30;99.90
13148;DHT22;6639;50.956;4.242;2024-01-30T11:19:00;14.50;99.90
13148;DHT22;6639;50.956;4.242;2024-01-30T11:21:27;15.00;99.90
13148;DHT22;6639;50.956;4.242;2024-01-30T11:23:55;15.10;99.90
13148;DHT22;6639;50.956;4.242;2024-01-30T11:26:27;15.30;99.90
13148;DHT22;6639;50.956;4.242;2024-01-30T11:28:55;15.20;99.90
13148;DHT22;6639;50.956;4.242;2024-01-30T11:31:23;15.10;99.90
13148;DHT22;6639;50.956;4.242;2024-01-30T11:33:53;15.60;99.90
13148;DHT22;6639;50.956;4.242;2024-01-30T11:36:25;15.80;99.90
13148;DHT22;6639;50.956;4.242;2024-01-30T11:38:51;15.60;99.90
13148;DHT22;6639;50.956;4.242;2024-01-30T11:41:18;15.20;99.90
13148;DHT22;6639;50.956;4.242;2024-01-30T11:43:51;15.10;99.90
13148;DHT22;6639;50.956;4.242;2024-01-30T11:46:18;14.90;99.90
13148;DHT22;6639;50.956;4.242;2024-01-30T11:48:47;14.60;99.90
13148;DHT22;6639;50.956;4.242;2024-01-30T11:51:14;14.30;99.90
13148;DHT22;6639;50.956;4.242;2024-01-30T11:53:41;14.30;99.90
13148;DHT22;6639;50.956;4.242;2024-01-30T11:56:08;14.80;99.90
13148;DHT22;6639;50.956;4.242;2024-01-30T11:58:35;15.20;99.90
13148;DHT22;6639;50.956;4.242;2024-01-30T12:01:02;15.00;99.90
13148;DHT22;6639;50.956;4.242;2024-01-30T12:03:29;14.90;99.90
13148;DHT22;6639;50.956;4.242;2024-01-30T12:05:58;15.00;99.90
13148;DHT22;6639;50.956;4.242;2024-01-30T12:08:25;15.10;99.90
13148;DHT22;6639;50.956;4.242;2024-01-30T12:10:56;15.30;99.90
13148;DHT22;6639;50.956;4.242;2024-01-30T12:13:24;15.50;99.90
13148;DHT22;6639;50.956;4.242;2024-01-30T12:15:53;15.30;99.90
13148;DHT22;6639;50.956;4.242;2024-01-30T12:18:20;15.50;99.90
13148;DHT22;6639;50.956;4.242;2024-01-30T12:20:58;15.70;99.90
13148;DHT22;6639;50.956;4.242;2024-01-30T12:23:26;15.60;99.90
13148;DHT22;6639;50.956;4.242;2024-01-30T12:25:53;15.30;99.90
13148;DHT22;6639;50.956;4.242;2024-01-30T12:28:20;15.30;99.90
13148;DHT22;6639;50.956;4.242;2024-01-30T12:30:47;15.50;99.90
13148;DHT22;6639;50.956;4.242;2024-01-30T12:33:16;15.40;99.90
13148;DHT22;6639;50.956;4.242;2024-01-30T12:35:45;15.80;99.90
13148;DHT22;6639;50.956;4.242;2024-01-30T12:38:14;16.20;99.90
13148;DHT22;6639;50.956;4.242;2024-01-30T12:40:41;15.90;99.90
13148;DHT22;6639;50.956;4.242;2024-01-30T12:43:08;15.70;99.90
13148;DHT22;6639;50.956;4.242;2024-01-30T12:45:36;15.20;99.90
13148;DHT22;6639;50.956;4.242;2024-01-30T12:48:03;15.20;99.90
13148;DHT22;6639;50.956;4.242;2024-01-30T12:50:30;14.90;99.90
13148;DHT22;6639;50.956;4.242;2024-01-30T12:52:57;14.50;99.90
13148;DHT22;6639;50.956;4.242;2024-01-30T12:55:26;14.80;99.90
13148;DHT22;6639;50.956;4.242;2024-01-30T12:57:54;14.90;99.90
13148;DHT22;6639;50.956;4.242;2024-01-30T13:00:21;14.80;99.90
13148;DHT22;6639;50.956;4.242;2024-01-30T13:02:48;14.80;99.90
13148;DHT22;6639;50.956;4.242;2024-01-30T13:05:15;14.80;99.90
13148;DHT22;6639;50.956;4.242;2024-01-30T13:07:42;14.80;99.90
13148;DHT22;6639;50.956;4.242;2024-01-30T13:10:09;15.00;99.90
13148;DHT22;6639;50.956;4.242;2024-01-30T13:12:38;15.20;99.90
13148;DHT22;6639;50.956;4.242;2024-01-30T13:15:05;14.80;99.90
13148;DHT22;6639;50.956;4.242;2024-01-30T13:17:33;14.40;99.90
13148;DHT22;6639;50.956;4.242;2024-01-30T13:20:00;14.70;99.90
13148;DHT22;6639;50.956;4.242;2024-01-30T13:22:27;14.90;99.90
13148;DHT22;6639;50.956;4.242;2024-01-30T13:24:53;14.80;99.90
13148;DHT22;6639;50.956;4.242;2024-01-30T13:27:20;15.00;99.90
13148;DHT22;6639;50.956;4.242;2024-01-30T13:29:49;14.90;99.90
13148;DHT22;6639;50.956;4.242;2024-01-30T13:32:16;14.50;99.90
13148;DHT22;6639;50.956;4.242;2024-01-30T13:34:43;14.30;99.90
13148;DHT22;6639;50.956;4.242;2024-01-30T13:37:10;14.40;99.90
13148;DHT22;6639;50.956;4.242;2024-01-30T13:39:37;14.80;99.90
13148;DHT22;6639;50.956;4.242;2024-01-30T13:42:04;14.80;99.90
13148;DHT22;6639;50.956;4.242;2024-01-30T13:44:31;14.90;99.90
13148;DHT22;6639;50.956;4.242;2024-01-30T13:46:59;15.30;99.90
13148;DHT22;6639;50.956;4.242;2024-01-30T13:49:26;15.80;99.90
13148;DHT22;6639;50.956;4.242;2024-01-30T13:51:53;15.70;99.90
13148;DHT22;6639;50.956;4.242;2024-01-30T13:54:20;15.40;99.90
13148;DHT22;6639;50.956;4.242;2024-01-30T13:56:47;15.60;99.90
13148;DHT22;6639;50.956;4.242;2024-01-30T13:59:14;15.70;99.90
13148;DHT22;6639;50.956;4.242;2024-01-30T14:01:41;16.00;99.90
13148;DHT22;6639;50.956;4.242;2024-01-30T14:04:09;16.00;99.90
13148;DHT22;6639;50.956;4.242;2024-01-30T14:06:36;16.10;99.90
13148;DHT22;6639;50.956;4.242;2024-01-30T14:09:03;15.90;99.90
13148;DHT22;6639;50.956;4.242;2024-01-30T14:11:31;15.90;99.90
13148;DHT22;6639;50.956;4.242;2024-01-30T14:13:58;15.60;99.90
13148;DHT22;6639;50.956;4.242;2024-01-30T14:16:25;15.70;99.90
13148;DHT22;6639;50.956;4.242;2024-01-30T14:18:52;15.30;99.90
13148;DHT22;6639;50.956;4.242;2024-01-30T14:21:21;15.30;99.90
13148;DHT22;6639;50.956;4.242;2024-01-30T14:23:49;15.20;99.90
13148;DHT22;6639;50.956;4.242;2024-01-30T14:26:16;15.10;99.90
13148;DHT22;6639;50.956;4.242;2024-01-30T14:28:43;15.10;99.90
13148;DHT22;6639;50.956;4.242;2024-01-30T14:31:11;14.40;99.90
13148;DHT22;6639;50.956;4.242;2024-01-30T14:33:39;14.40;99.90
13148;DHT22;6639;50.956;4.242;2024-01-30T14:36:06;14.60;99.90
13148;DHT22;6639;50.956;4.242;2024-01-30T14:38:36;14.70;99.90
13148;DHT22;6639;50.956;4.242;2024-01-30T14:41:03;14.90;99.90
13148;DHT22;6639;50.956;4.242;2024-01-30T14:43:31;14.70;99.90
13148;DHT22;6639;50.956;4.242;2024-01-30T14:45:58;14.40;99.90
13148;DHT22;6639;50.956;4.242;2024-01-30T14:48:25;14.30;99.90
13148;DHT22;6639;50.956;4.242;2024-01-30T14:50:52;14.30;99.90
13148;DHT22;6639;50.956;4.242;2024-01-30T14:53:19;14.30;99.90
13148;DHT22;6639;50.956;4.242;2024-01-30T14:55:47;14.20;99.90
13148;DHT22;6639;50.956;4.242;2024-01-30T14:58:14;14.00;99.90
13148;DHT22;6639;50.956;4.242;2024-01-30T15:00:41;14.10;99.90
13148;DHT22;6639;50.956;4.242;2024-01-30T15:03:08;14.20;99.90
13148;DHT22;6639;50.956;4.242;2024-01-30T15:05:35;14.50;99.90
13148;DHT22;6639;50.956;4.242;2024-01-30T15:08:02;14.60;99.90
13148;DHT22;6639;50.956;4.242;2024-01-30T15:10:30;14.80;99.90
13148;DHT22;6639;50.956;4.242;2024-01-30T15:12:58;14.20;99.90
13148;DHT22;6639;50.956;4.242;2024-01-30T15:15:25;14.00;99.90
13148;DHT22;6639;50.956;4.242;2024-01-30T15:17:53;13.90;99.90
13148;DHT22;6639;50.956;4.242;2024-01-30T15:20:20;14.00;99.90
13148;DHT22;6639;50.956;4.242;2024-01-30T15:22:47;14.00;99.90
13148;DHT22;6639;50.956;4.242;2024-01-30T15:25:14;14.10;99.90
13148;DHT22;6639;50.956;4.242;2024-01-30T15:27:41;14.20;99.90
13148;DHT22;6639;50.956;4.242;2024-01-30T15:30:11;14.10;99.90
13148;DHT22;6639;50.956;4.242;2024-01-30T15:32:38;13.90;99.90
13148;DHT22;6639;50.956;4.242;2024-01-30T15:35:06;13.90;99.90
13148;DHT22;6639;50.956;4.242;2024-01-30T15:37:34;14.00;99.90
13148;DHT22;6639;50.956;4.242;2024-01-30T15:40:01;13.80;99.90
13148;DHT22;6639;50.956;4.242;2024-01-30T15:42:28;13.90;99.90
13148;DHT22;6639;50.956;4.242;2024-01-30T15:44:55;13.90;99.90
13148;DHT22;6639;50.956;4.242;2024-01-30T15:47:23;14.10;99.90